If you wish to contribute or participate in the discussions about articles you are invited to join SKYbrary as a registered user

 Actions

Ugolny Airport

From SKYbrary Wiki

UHMA
Airport
ICAO: UHMA – IATA: DYR
Summary
Name Ugolny Airport
Region Europe
Territory Russian Federation RU.gif
Location Ugolnye, Siberia
Serving Anadyr
Elevation 59.131 m
194 ft
194 ft59.131 m
Coordinates 64° 43' 56.59" N, 177° 43' 52.14" E
Runways
Designator Length Width Surface ROPS
1/19 3500 m11,482.94 ft
60 m196.85 ft
CON no/no


METAR
Observation UHMA 211700Z 00000MPS CAVOK M02/M04 Q1020 R01/////// NOSIG RMK END R01/00000MPS QFE761/1015
Station Anadyr
Date/Time 21 May 2019 17:00:00
Wind direction
Wind speed kts
Lowest cloud amount clouds and visibility OK
Temperature
Dew point
Humidity 86%
QNH 1020 hPa
Weather condition n/a

Civil and military airport serving the city of Anadyr in Siberia. With a long runway and modern terminal, the airport is well-suited as an emergency diversion for northern route, trans-Pacific routes.

Climatology

Subarctic climate (Köppen climate classification Dfc) - long, usually very cold winters, and short, cool to mild summers.

Maps

Terrain

Loading map...

Airport Layout

Loading map...


Accidents & Serious Incidents at or in vicinity of UHMA

None on SKYbrary